sensor_id;sensor_type;location;lat;lon;timestamp;temperature;humidity
30134;DHT22;16946;49.984;10.672;2022-12-29T00:00:28;7.50;99.90
30134;DHT22;16946;49.984;10.672;2022-12-29T00:01:02;7.50;99.90
30134;DHT22;16946;49.984;10.672;2022-12-29T00:01:33;7.50;99.90
30134;DHT22;16946;49.984;10.672;2022-12-29T00:02:03;7.50;99.90
30134;DHT22;16946;49.984;10.672;2022-12-29T00:02:34;7.50;99.90
30134;DHT22;16946;49.984;10.672;2022-12-29T00:03:04;7.50;99.90
30134;DHT22;16946;49.984;10.672;2022-12-29T00:03:35;7.60;99.90
30134;DHT22;16946;49.984;10.672;2022-12-29T00:04:06;7.50;99.90
30134;DHT22;16946;49.984;10.672;2022-12-29T00:04:36;7.50;99.90
30134;DHT22;16946;49.984;10.672;2022-12-29T00:05:07;7.40;99.90
30134;DHT22;16946;49.984;10.672;2022-12-29T00:05:38;7.40;99.90
30134;DHT22;16946;49.984;10.672;2022-12-29T00:06:08;7.40;99.90
30134;DHT22;16946;49.984;10.672;2022-12-29T00:06:39;7.30;99.90
30134;DHT22;16946;49.984;10.672;2022-12-29T00:07:10;7.30;99.90
30134;DHT22;16946;49.984;10.672;2022-12-29T00:07:41;7.30;99.90
30134;DHT22;16946;49.984;10.672;2022-12-29T00:08:11;7.30;99.90
30134;DHT22;16946;49.984;10.672;2022-12-29T00:08:42;7.30;99.90
30134;DHT22;16946;49.984;10.672;2022-12-29T00:09:13;7.20;99.90
30134;DHT22;16946;49.984;10.672;2022-12-29T00:09:44;7.20;99.90
30134;DHT22;16946;49.984;10.672;2022-12-29T00:10:14;7.20;99.90
30134;DHT22;16946;49.984;10.672;2022-12-29T00:10:45;7.20;99.90
30134;DHT22;16946;49.984;10.672;2022-12-29T00:11:18;7.20;99.90
30134;DHT22;16946;49.984;10.672;2022-12-29T00:11:49;7.20;99.90
30134;DHT22;16946;49.984;10.672;2022-12-29T00:12:20;7.20;99.90
30134;DHT22;16946;49.984;10.672;2022-12-29T00:12:51;7.10;99.90
30134;DHT22;16946;49.984;10.672;2022-12-29T00:13:40;7.10;99.90
30134;DHT22;16946;49.984;10.672;2022-12-29T00:14:30;7.00;99.90
30134;DHT22;16946;49.984;10.672;2022-12-29T00:15:19;7.00;99.90
30134;DHT22;16946;49.984;10.672;2022-12-29T00:16:08;7.00;99.90
30134;DHT22;16946;49.984;10.672;2022-12-29T00:16:41;7.00;99.90
30134;DHT22;16946;49.984;10.672;2022-12-29T00:17:13;6.90;99.90
30134;DHT22;16946;49.984;10.672;2022-12-29T00:17:43;6.90;99.90
30134;DHT22;16946;49.984;10.672;2022-12-29T00:18:14;6.90;99.90
30134;DHT22;16946;49.984;10.672;2022-12-29T00:18:45;6.90;99.90
30134;DHT22;16946;49.984;10.672;2022-12-29T00:19:15;6.90;99.90
30134;DHT22;16946;49.984;10.672;2022-12-29T00:20:05;6.90;99.90
30134;DHT22;16946;49.984;10.672;2022-12-29T00:20:54;6.90;99.90
30134;DHT22;16946;49.984;10.672;2022-12-29T00:21:44;6.80;99.90
30134;DHT22;16946;49.984;10.672;2022-12-29T00:22:44;6.80;99.90
30134;DHT22;16946;49.984;10.672;2022-12-29T00:23:33;6.80;99.90
30134;DHT22;16946;49.984;10.672;2022-12-29T00:24:22;6.80;99.90
30134;DHT22;16946;49.984;10.672;2022-12-29T00:24:56;6.80;99.90
30134;DHT22;16946;49.984;10.672;2022-12-29T00:25:36;6.80;99.90
30134;DHT22;16946;49.984;10.672;2022-12-29T00:26:25;6.80;99.90
30134;DHT22;16946;49.984;10.672;2022-12-29T00:27:14;6.80;99.90
30134;DHT22;16946;49.984;10.672;2022-12-29T00:28:04;6.80;99.90
30134;DHT22;16946;49.984;10.672;2022-12-29T00:28:53;6.80;99.90
30134;DHT22;16946;49.984;10.672;2022-12-29T00:29:42;6.80;99.90
30134;DHT22;16946;49.984;10.672;2022-12-29T00:30:31;6.80;99.90
30134;DHT22;16946;49.984;10.672;2022-12-29T00:31:21;6.70;99.90
30134;DHT22;16946;49.984;10.672;2022-12-29T00:32:10;6.80;99.90
30134;DHT22;16946;49.984;10.672;2022-12-29T00:32:59;6.70;99.90
30134;DHT22;16946;49.984;10.672;2022-12-29T00:33:48;6.70;99.90
30134;DHT22;16946;49.984;10.672;2022-12-29T00:34:38;6.70;99.90
30134;DHT22;16946;49.984;10.672;2022-12-29T00:35:33;6.80;99.90
30134;DHT22;16946;49.984;10.672;2022-12-29T00:36:25;6.70;99.90
30134;DHT22;16946;49.984;10.672;2022-12-29T00:36:57;6.70;99.90
30134;DHT22;16946;49.984;10.672;2022-12-29T00:37:28;6.70;99.90
30134;DHT22;16946;49.984;10.672;2022-12-29T00:38:19;6.80;99.90
30134;DHT22;16946;49.984;10.672;2022-12-29T00:39:12;6.70;99.90
30134;DHT22;16946;49.984;10.672;2022-12-29T00:40:02;6.70;99.90
30134;DHT22;16946;49.984;10.672;2022-12-29T00:40:51;6.60;99.90
30134;DHT22;16946;49.984;10.672;2022-12-29T00:41:40;6.60;99.90
30134;DHT22;16946;49.984;10.672;2022-12-29T00:42:30;6.70;99.90
30134;DHT22;16946;49.984;10.672;2022-12-29T00:43:19;6.70;99.90
30134;DHT22;16946;49.984;10.672;2022-12-29T00:44:09;6.70;99.90
30134;DHT22;16946;49.984;10.672;2022-12-29T00:44:40;6.70;99.90
30134;DHT22;16946;49.984;10.672;2022-12-29T00:45:11;6.70;99.90
30134;DHT22;16946;49.984;10.672;2022-12-29T00:45:41;6.70;99.90
30134;DHT22;16946;49.984;10.672;2022-12-29T00:46:12;6.80;99.90
30134;DHT22;16946;49.984;10.672;2022-12-29T00:46:43;6.80;99.90
30134;DHT22;16946;49.984;10.672;2022-12-29T00:47:14;6.80;99.90
30134;DHT22;16946;49.984;10.672;2022-12-29T00:47:44;6.80;99.90
30134;DHT22;16946;49.984;10.672;2022-12-29T00:48:15;6.80;99.90
30134;DHT22;16946;49.984;10.672;2022-12-29T00:48:45;6.90;99.90
30134;DHT22;16946;49.984;10.672;2022-12-29T00:49:34;6.90;99.90
30134;DHT22;16946;49.984;10.672;2022-12-29T00:50:05;6.90;99.90
30134;DHT22;16946;49.984;10.672;2022-12-29T00:50:36;6.90;99.90
30134;DHT22;16946;49.984;10.672;2022-12-29T00:51:07;6.90;99.90
30134;DHT22;16946;49.984;10.672;2022-12-29T00:51:37;6.90;99.90
30134;DHT22;16946;49.984;10.672;2022-12-29T00:52:10;6.90;99.90
30134;DHT22;16946;49.984;10.672;2022-12-29T00:52:41;6.90;99.90
30134;DHT22;16946;49.984;10.672;2022-12-29T00:53:12;6.90;99.90
30134;DHT22;16946;49.984;10.672;2022-12-29T00:53:42;6.90;99.90
30134;DHT22;16946;49.984;10.672;2022-12-29T00:54:14;6.90;99.90
30134;DHT22;16946;49.984;10.672;2022-12-29T00:54:44;6.90;99.90
30134;DHT22;16946;49.984;10.672;2022-12-29T00:55:15;6.90;99.90
30134;DHT22;16946;49.984;10.672;2022-12-29T00:55:45;6.90;99.90
30134;DHT22;16946;49.984;10.672;2022-12-29T00:56:16;6.90;99.90
30134;DHT22;16946;49.984;10.672;2022-12-29T00:56:50;7.00;99.90
30134;DHT22;16946;49.984;10.672;2022-12-29T00:57:21;6.90;99.90
30134;DHT22;16946;49.984;10.672;2022-12-29T00:57:52;7.00;99.90
30134;DHT22;16946;49.984;10.672;2022-12-29T00:58:22;7.00;99.90
30134;DHT22;16946;49.984;10.672;2022-12-29T00:58:53;7.00;99.90
30134;DHT22;16946;49.984;10.672;2022-12-29T00:59:23;7.00;99.90
30134;DHT22;16946;49.984;10.672;2022-12-29T00:59:54;7.00;99.90
30134;DHT22;16946;49.984;10.672;2022-12-29T01:00:24;7.00;99.90
30134;DHT22;16946;49.984;10.672;2022-12-29T01:01:05;6.90;99.90
30134;DHT22;16946;49.984;10.672;2022-12-29T01:01:37;6.90;99.90
30134;DHT22;16946;49.984;10.672;2022-12-29T01:02:09;6.90;99.90
30134;DHT22;16946;49.984;10.672;2022-12-29T01:02:40;6.90;99.90
30134;DHT22;16946;49.984;10.672;2022-12-29T01:03:10;6.90;99.90
30134;DHT22;16946;49.984;10.672;2022-12-29T01:03:41;6.90;99.90
30134;DHT22;16946;49.984;10.672;2022-12-29T01:04:12;6.90;99.90
30134;DHT22;16946;49.984;10.672;2022-12-29T01:04:42;6.90;99.90
30134;DHT22;16946;49.984;10.672;2022-12-29T01:05:13;6.90;99.90
30134;DHT22;16946;49.984;10.672;2022-12-29T01:05:44;7.00;99.90
30134;DHT22;16946;49.984;10.672;2022-12-29T01:06:15;6.90;99.90
30134;DHT22;16946;49.984;10.672;2022-12-29T01:06:46;7.00;99.90
30134;DHT22;16946;49.984;10.672;2022-12-29T01:07:16;6.90;99.90
30134;DHT22;16946;49.984;10.672;2022-12-29T01:07:47;6.90;99.90
30134;DHT22;16946;49.984;10.672;2022-12-29T01:08:17;6.90;99.90
30134;DHT22;16946;49.984;10.672;2022-12-29T01:08:48;6.80;99.90
30134;DHT22;16946;49.984;10.672;2022-12-29T01:09:38;6.80;99.90
30134;DHT22;16946;49.984;10.672;2022-12-29T01:10:27;6.90;99.90
30134;DHT22;16946;49.984;10.672;2022-12-29T01:11:08;6.90;99.90
30134;DHT22;16946;49.984;10.672;2022-12-29T01:11:39;6.90;99.90
30134;DHT22;16946;49.984;10.672;2022-12-29T01:12:10;6.80;99.90
30134;DHT22;16946;49.984;10.672;2022-12-29T01:12:40;6.80;99.90
30134;DHT22;16946;49.984;10.672;2022-12-29T01:13:11;6.80;99.90
30134;DHT22;16946;49.984;10.672;2022-12-29T01:13:41;6.90;99.90
30134;DHT22;16946;49.984;10.672;2022-12-29T01:14:14;6.90;99.90
30134;DHT22;16946;49.984;10.672;2022-12-29T01:14:44;6.90;99.90
30134;DHT22;16946;49.984;10.672;2022-12-29T01:15:15;7.00;99.90
30134;DHT22;16946;49.984;10.672;2022-12-29T01:15:52;7.00;99.90
30134;DHT22;16946;49.984;10.672;2022-12-29T01:16:23;7.00;99.90
30134;DHT22;16946;49.984;10.672;2022-12-29T01:16:54;7.00;99.90
30134;DHT22;16946;49.984;10.672;2022-12-29T01:17:25;7.00;99.90
30134;DHT22;16946;49.984;10.672;2022-12-29T01:17:55;7.00;99.90
30134;DHT22;16946;49.984;10.672;2022-12-29T01:18:26;7.10;99.90
30134;DHT22;16946;49.984;10.672;2022-12-29T01:18:56;7.10;99.90
30134;DHT22;16946;49.984;10.672;2022-12-29T01:19:27;7.10;99.90
30134;DHT22;16946;49.984;10.672;2022-12-29T01:19:58;7.10;99.90
30134;DHT22;16946;49.984;10.672;2022-12-29T01:20:28;7.10;99.90
30134;DHT22;16946;49.984;10.672;2022-12-29T01:21:04;7.10;99.90
30134;DHT22;16946;49.984;10.672;2022-12-29T01:21:35;7.10;99.90
30134;DHT22;16946;49.984;10.672;2022-12-29T01:22:06;7.10;99.90
30134;DHT22;16946;49.984;10.672;2022-12-29T01:22:37;7.00;99.90
30134;DHT22;16946;49.984;10.672;2022-12-29T01:23:07;7.00;99.90
30134;DHT22;16946;49.984;10.672;2022-12-29T01:23:38;7.00;99.90
30134;DHT22;16946;49.984;10.672;2022-12-29T01:24:08;7.00;99.90
30134;DHT22;16946;49.984;10.672;2022-12-29T01:24:39;7.00;99.90
30134;DHT22;16946;49.984;10.672;2022-12-29T01:25:09;7.00;99.90
30134;DHT22;16946;49.984;10.672;2022-12-29T01:25:40;7.00;99.90
30134;DHT22;16946;49.984;10.672;2022-12-29T01:26:12;7.00;99.90
30134;DHT22;16946;49.984;10.672;2022-12-29T01:26:43;7.00;99.90
30134;DHT22;16946;49.984;10.672;2022-12-29T01:27:13;7.00;99.90
30134;DHT22;16946;49.984;10.672;2022-12-29T01:27:44;7.00;99.90
30134;DHT22;16946;49.984;10.672;2022-12-29T01:28:14;6.90;99.90
30134;DHT22;16946;49.984;10.672;2022-12-29T01:28:45;6.90;99.90
30134;DHT22;16946;49.984;10.672;2022-12-29T01:29:16;6.90;99.90
30134;DHT22;16946;49.984;10.672;2022-12-29T01:29:47;7.00;99.90
30134;DHT22;16946;49.984;10.672;2022-12-29T01:30:17;6.90;99.90
30134;DHT22;16946;49.984;10.672;2022-12-29T01:30:48;7.00;99.90
30134;DHT22;16946;49.984;10.672;2022-12-29T01:31:19;7.00;99.90
30134;DHT22;16946;49.984;10.672;2022-12-29T01:31:49;7.00;99.90
30134;DHT22;16946;49.984;10.672;2022-12-29T01:32:20;7.00;99.90
30134;DHT22;16946;49.984;10.672;2022-12-29T01:32:50;7.10;99.90
30134;DHT22;16946;49.984;10.672;2022-12-29T01:33:21;7.10;99.90
30134;DHT22;16946;49.984;10.672;2022-12-29T01:33:51;7.10;99.90
30134;DHT22;16946;49.984;10.672;2022-12-29T01:34:22;7.10;99.90
30134;DHT22;16946;49.984;10.672;2022-12-29T01:34:52;7.10;99.90
30134;DHT22;16946;49.984;10.672;2022-12-29T01:35:23;7.10;99.90
30134;DHT22;16946;49.984;10.672;2022-12-29T01:35:53;7.10;99.90
30134;DHT22;16946;49.984;10.672;2022-12-29T01:36:24;7.10;99.90
30134;DHT22;16946;49.984;10.672;2022-12-29T01:36:55;7.10;99.90
30134;DHT22;16946;49.984;10.672;2022-12-29T01:37:25;7.10;99.90
30134;DHT22;16946;49.984;10.672;2022-12-29T01:37:56;7.20;99.90
30134;DHT22;16946;49.984;10.672;2022-12-29T01:38:26;7.20;99.90
30134;DHT22;16946;49.984;10.672;2022-12-29T01:38:57;7.20;99.90
30134;DHT22;16946;49.984;10.672;2022-12-29T01:39:27;7.20;99.90
30134;DHT22;16946;49.984;10.672;2022-12-29T01:39:58;7.30;99.90
30134;DHT22;16946;49.984;10.672;2022-12-29T01:40:28;7.30;99.90
30134;DHT22;16946;49.984;10.672;2022-12-29T01:40:59;7.30;99.90
30134;DHT22;16946;49.984;10.672;2022-12-29T01:41:29;7.30;99.90
30134;DHT22;16946;49.984;10.672;2022-12-29T01:42:01;7.30;99.90
30134;DHT22;16946;49.984;10.672;2022-12-29T01:42:32;7.40;99.90
30134;DHT22;16946;49.984;10.672;2022-12-29T01:43:04;7.40;99.90
30134;DHT22;16946;49.984;10.672;2022-12-29T01:43:50;7.30;99.90
30134;DHT22;16946;49.984;10.672;2022-12-29T01:45:14;7.30;99.90
30134;DHT22;16946;49.984;10.672;2022-12-29T01:45:51;7.30;99.90
30134;DHT22;16946;49.984;10.672;2022-12-29T01:46:27;7.30;99.90
30134;DHT22;16946;49.984;10.672;2022-12-29T01:46:59;7.30;99.90
30134;DHT22;16946;49.984;10.672;2022-12-29T01:47:40;7.30;99.90
30134;DHT22;16946;49.984;10.672;2022-12-29T01:48:13;7.30;99.90
30134;DHT22;16946;49.984;10.672;2022-12-29T01:48:46;7.30;99.90
30134;DHT22;16946;49.984;10.672;2022-12-29T01:49:21;7.40;99.90
30134;DHT22;16946;49.984;10.672;2022-12-29T01:49:58;7.40;99.90
30134;DHT22;16946;49.984;10.672;2022-12-29T01:50:30;7.40;99.90
30134;DHT22;16946;49.984;10.672;2022-12-29T01:51:02;7.40;99.90
30134;DHT22;16946;49.984;10.672;2022-12-29T01:51:35;7.50;99.90
30134;DHT22;16946;49.984;10.672;2022-12-29T01:52:08;7.60;99.90
30134;DHT22;16946;49.984;10.672;2022-12-29T01:52:43;7.60;99.90
30134;DHT22;16946;49.984;10.672;2022-12-29T01:53:29;7.70;99.90
30134;DHT22;16946;49.984;10.672;2022-12-29T01:54:03;7.70;99.90
30134;DHT22;16946;49.984;10.672;2022-12-29T01:54:39;7.70;99.90
30134;DHT22;16946;49.984;10.672;2022-12-29T01:55:12;7.80;99.90
30134;DHT22;16946;49.984;10.672;2022-12-29T01:55:49;7.70;99.90
30134;DHT22;16946;49.984;10.672;2022-12-29T01:56:20;7.70;99.90
30134;DHT22;16946;49.984;10.672;2022-12-29T01:56:52;7.70;99.90
30134;DHT22;16946;49.984;10.672;2022-12-29T01:57:27;7.60;99.90
30134;DHT22;16946;49.984;10.672;2022-12-29T01:58:02;7.70;99.90
30134;DHT22;16946;49.984;10.672;2022-12-29T01:58:37;7.70;99.90
30134;DHT22;16946;49.984;10.672;2022-12-29T01:59:14;7.60;99.90
30134;DHT22;16946;49.984;10.672;2022-12-29T01:59:50;7.60;99.90
30134;DHT22;16946;49.984;10.672;2022-12-29T02:00:23;7.70;99.90
30134;DHT22;16946;49.984;10.672;2022-12-29T02:00:54;7.80;99.90
30134;DHT22;16946;49.984;10.672;2022-12-29T02:01:24;7.80;99.90
30134;DHT22;16946;49.984;10.672;2022-12-29T02:01:55;7.80;99.90
30134;DHT22;16946;49.984;10.672;2022-12-29T02:02:25;7.80;99.90
30134;DHT22;16946;49.984;10.672;2022-12-29T02:02:56;7.70;99.90
30134;DHT22;16946;49.984;10.672;2022-12-29T02:03:28;7.70;99.90
30134;DHT22;16946;49.984;10.672;2022-12-29T02:04:02;7.70;99.90
30134;DHT22;16946;49.984;10.672;2022-12-29T02:04:34;7.60;99.90
30134;DHT22;16946;49.984;10.672;2022-12-29T02:05:11;7.60;99.90
30134;DHT22;16946;49.984;10.672;2022-12-29T02:06:08;7.60;99.90
30134;DHT22;16946;49.984;10.672;2022-12-29T02:06:49;7.70;99.90
30134;DHT22;16946;49.984;10.672;2022-12-29T02:07:23;7.70;99.90
30134;DHT22;16946;49.984;10.672;2022-12-29T02:07:55;7.70;99.90
30134;DHT22;16946;49.984;10.672;2022-12-29T02:08:28;7.70;99.90
30134;DHT22;16946;49.984;10.672;2022-12-29T02:09:00;7.70;99.90
30134;DHT22;16946;49.984;10.672;2022-12-29T02:09:31;7.60;99.90
30134;DHT22;16946;49.984;10.672;2022-12-29T02:10:02;7.60;99.90
30134;DHT22;16946;49.984;10.672;2022-12-29T02:10:37;7.60;99.90
30134;DHT22;16946;49.984;10.672;2022-12-29T02:11:09;7.60;99.90
30134;DHT22;16946;49.984;10.672;2022-12-29T02:11:40;7.60;99.90
30134;DHT22;16946;49.984;10.672;2022-12-29T02:12:10;7.70;99.90
30134;DHT22;16946;49.984;10.672;2022-12-29T02:12:41;7.70;99.90
30134;DHT22;16946;49.984;10.672;2022-12-29T02:13:15;7.60;99.90
30134;DHT22;16946;49.984;10.672;2022-12-29T02:13:47;7.70;99.90
30134;DHT22;16946;49.984;10.672;2022-12-29T02:14:17;7.70;99.90
30134;DHT22;16946;49.984;10.672;2022-12-29T02:14:50;7.70;99.90
30134;DHT22;16946;49.984;10.672;2022-12-29T02:15:35;7.70;99.90
30134;DHT22;16946;49.984;10.672;2022-12-29T02:17:24;7.70;99.90
30134;DHT22;16946;49.984;10.672;2022-12-29T02:18:14;7.70;99.90
30134;DHT22;16946;49.984;10.672;2022-12-29T02:22:32;7.80;99.90
30134;DHT22;16946;49.984;10.672;2022-12-29T02:33:30;7.90;99.90
30134;DHT22;16946;49.984;10.672;2022-12-29T02:34:14;7.80;99.90
30134;DHT22;16946;49.984;10.672;2022-12-29T02:35:46;7.90;99.90
30134;DHT22;16946;49.984;10.672;2022-12-29T02:36:29;7.90;99.90
30134;DHT22;16946;49.984;10.672;2022-12-29T02:37:07;8.00;99.90
30134;DHT22;16946;49.984;10.672;2022-12-29T02:37:58;8.10;99.90
30134;DHT22;16946;49.984;10.672;2022-12-29T02:38:49;8.20;99.90
30134;DHT22;16946;49.984;10.672;2022-12-29T02:39:38;8.20;99.90
30134;DHT22;16946;49.984;10.672;2022-12-29T02:40:29;8.20;99.90
30134;DHT22;16946;49.984;10.672;2022-12-29T02:41:30;8.20;99.90
30134;DHT22;16946;49.984;10.672;2022-12-29T02:43:19;8.30;99.90
30134;DHT22;16946;49.984;10.672;2022-12-29T02:44:11;8.30;99.90
30134;DHT22;16946;49.984;10.672;2022-12-29T02:44:55;8.30;99.90
30134;DHT22;16946;49.984;10.672;2022-12-29T02:46:22;8.30;99.90
30134;DHT22;16946;49.984;10.672;2022-12-29T02:47:11;8.20;99.90
30134;DHT22;16946;49.984;10.672;2022-12-29T02:50:33;8.20;99.90
30134;DHT22;16946;49.984;10.672;2022-12-29T02:51:59;8.10;99.90
30134;DHT22;16946;49.984;10.672;2022-12-29T02:52:36;8.20;99.90
30134;DHT22;16946;49.984;10.672;2022-12-29T02:53:15;8.20;99.90
30134;DHT22;16946;49.984;10.672;2022-12-29T02:53:48;8.20;99.90
30134;DHT22;16946;49.984;10.672;2022-12-29T02:54:37;8.20;99.90
30134;DHT22;16946;49.984;10.672;2022-12-29T02:55:11;8.20;99.90
30134;DHT22;16946;49.984;10.672;2022-12-29T02:55:49;8.20;99.90
30134;DHT22;16946;49.984;10.672;2022-12-29T02:56:21;8.20;99.90
30134;DHT22;16946;49.984;10.672;2022-12-29T02:56:51;8.20;99.90
30134;DHT22;16946;49.984;10.672;2022-12-29T02:58:21;8.30;99.90
30134;DHT22;16946;49.984;10.672;2022-12-29T02:58:52;8.40;99.90
30134;DHT22;16946;49.984;10.672;2022-12-29T02:59:23;8.40;99.90
30134;DHT22;16946;49.984;10.672;2022-12-29T02:59:58;8.50;99.90
30134;DHT22;16946;49.984;10.672;2022-12-29T03:00:30;8.50;99.90
30134;DHT22;16946;49.984;10.672;2022-12-29T03:01:23;8.60;99.90
30134;DHT22;16946;49.984;10.672;2022-12-29T03:02:30;8.60;99.90
30134;DHT22;16946;49.984;10.672;2022-12-29T03:03:45;8.70;99.90
30134;DHT22;16946;49.984;10.672;2022-12-29T03:04:44;8.80;99.90
30134;DHT22;16946;49.984;10.672;2022-12-29T03:05:56;8.80;99.90
30134;DHT22;16946;49.984;10.672;2022-12-29T03:06:56;8.90;99.90
30134;DHT22;16946;49.984;10.672;2022-12-29T03:08:54;9.10;99.90
30134;DHT22;16946;49.984;10.672;2022-12-29T03:10:41;9.40;99.90
30134;DHT22;16946;49.984;10.672;2022-12-29T03:11:15;9.50;99.90
30134;DHT22;16946;49.984;10.672;2022-12-29T03:12:29;9.60;99.90
30134;DHT22;16946;49.984;10.672;2022-12-29T03:14:28;10.00;99.90
30134;DHT22;16946;49.984;10.672;2022-12-29T03:15:25;10.00;99.90
30134;DHT22;16946;49.984;10.672;2022-12-29T03:16:32;10.00;99.90
30134;DHT22;16946;49.984;10.672;2022-12-29T03:17:24;10.10;99.90
30134;DHT22;16946;49.984;10.672;2022-12-29T03:18:06;10.10;99.90
30134;DHT22;16946;49.984;10.672;2022-12-29T03:18:55;10.10;99.90
30134;DHT22;16946;49.984;10.672;2022-12-29T03:19:35;10.20;99.90
30134;DHT22;16946;49.984;10.672;2022-12-29T03:20:08;10.30;99.90
30134;DHT22;16946;49.984;10.672;2022-12-29T03:20:53;10.30;99.90
30134;DHT22;16946;49.984;10.672;2022-12-29T03:21:39;10.30;99.90
30134;DHT22;16946;49.984;10.672;2022-12-29T03:22:32;10.40;99.90
30134;DHT22;16946;49.984;10.672;2022-12-29T03:23:06;10.50;99.90
30134;DHT22;16946;49.984;10.672;2022-12-29T03:23:39;10.50;99.90
30134;DHT22;16946;49.984;10.672;2022-12-29T03:24:11;10.50;99.90
30134;DHT22;16946;49.984;10.672;2022-12-29T03:24:46;10.50;99.90
30134;DHT22;16946;49.984;10.672;2022-12-29T03:25:25;10.50;99.90
30134;DHT22;16946;49.984;10.672;2022-12-29T03:25:58;10.50;99.90
30134;DHT22;16946;49.984;10.672;2022-12-29T03:26:32;10.50;99.90
30134;DHT22;16946;49.984;10.672;2022-12-29T03:27:05;10.50;99.90
30134;DHT22;16946;49.984;10.672;2022-12-29T03:27:49;10.50;99.90
30134;DHT22;16946;49.984;10.672;2022-12-29T03:28:32;10.50;99.90
30134;DHT22;16946;49.984;10.672;2022-12-29T03:29:05;10.50;99.90
30134;DHT22;16946;49.984;10.672;2022-12-29T03:29:47;10.50;99.90
30134;DHT22;16946;49.984;10.672;2022-12-29T03:30:22;10.50;99.90
30134;DHT22;16946;49.984;10.672;2022-12-29T03:30:54;10.50;99.90
30134;DHT22;16946;49.984;10.672;2022-12-29T03:31:26;10.50;99.90
30134;DHT22;16946;49.984;10.672;2022-12-29T03:31:57;10.50;99.90
30134;DHT22;16946;49.984;10.672;2022-12-29T03:32:40;10.50;99.90
30134;DHT22;16946;49.984;10.672;2022-12-29T03:33:15;10.50;99.90
30134;DHT22;16946;49.984;10.672;2022-12-29T03:33:47;10.50;99.90
30134;DHT22;16946;49.984;10.672;2022-12-29T03:34:20;10.50;99.90
30134;DHT22;16946;49.984;10.672;2022-12-29T03:34:51;10.50;99.90
30134;DHT22;16946;49.984;10.672;2022-12-29T03:35:26;10.50;99.90
30134;DHT22;16946;49.984;10.672;2022-12-29T03:36:06;10.50;99.90
30134;DHT22;16946;49.984;10.672;2022-12-29T03:36:46;10.50;99.90
30134;DHT22;16946;49.984;10.672;2022-12-29T03:37:22;10.50;99.90
30134;DHT22;16946;49.984;10.672;2022-12-29T03:38:13;10.50;99.90
30134;DHT22;16946;49.984;10.672;2022-12-29T03:38:53;10.50;99.90
30134;DHT22;16946;49.984;10.672;2022-12-29T03:39:26;10.60;99.90
30134;DHT22;16946;49.984;10.672;2022-12-29T03:39:57;10.60;99.90
30134;DHT22;16946;49.984;10.672;2022-12-29T03:40:28;10.60;99.90
30134;DHT22;16946;49.984;10.672;2022-12-29T03:41:06;10.60;99.90
30134;DHT22;16946;49.984;10.672;2022-12-29T03:41:40;10.60;99.90
30134;DHT22;16946;49.984;10.672;2022-12-29T03:42:19;10.60;99.90
30134;DHT22;16946;49.984;10.672;2022-12-29T03:42:50;10.60;99.90
30134;DHT22;16946;49.984;10.672;2022-12-29T03:43:22;10.60;99.90
30134;DHT22;16946;49.984;10.672;2022-12-29T03:43:53;10.60;99.90
30134;DHT22;16946;49.984;10.672;2022-12-29T03:44:32;10.60;99.90
30134;DHT22;16946;49.984;10.672;2022-12-29T03:45:04;10.60;99.90
30134;DHT22;16946;49.984;10.672;2022-12-29T03:45:36;10.60;99.90
30134;DHT22;16946;49.984;10.672;2022-12-29T03:46:07;10.50;99.90
30134;DHT22;16946;49.984;10.672;2022-12-29T03:46:38;10.50;99.90
30134;DHT22;16946;49.984;10.672;2022-12-29T03:47:10;10.50;99.90
30134;DHT22;16946;49.984;10.672;2022-12-29T03:47:41;10.50;99.90
30134;DHT22;16946;49.984;10.672;2022-12-29T03:48:11;10.60;99.90
30134;DHT22;16946;49.984;10.672;2022-12-29T03:48:42;10.50;99.90
30134;DHT22;16946;49.984;10.672;2022-12-29T03:49:12;10.50;99.90
30134;DHT22;16946;49.984;10.672;2022-12-29T03:49:43;10.50;99.90
30134;DHT22;16946;49.984;10.672;2022-12-29T03:50:13;10.50;99.90
30134;DHT22;16946;49.984;10.672;2022-12-29T03:50:44;10.50;99.90
30134;DHT22;16946;49.984;10.672;2022-12-29T03:51:15;10.40;99.90
30134;DHT22;16946;49.984;10.672;2022-12-29T03:51:45;10.50;99.90
30134;DHT22;16946;49.984;10.672;2022-12-29T03:52:16;10.50;99.90
30134;DHT22;16946;49.984;10.672;2022-12-29T03:52:47;10.40;99.90
30134;DHT22;16946;49.984;10.672;2022-12-29T03:53:17;10.40;99.90
30134;DHT22;16946;49.984;10.672;2022-12-29T03:53:48;10.50;99.90
30134;DHT22;16946;49.984;10.672;2022-12-29T03:54:18;10.50;99.90
30134;DHT22;16946;49.984;10.672;2022-12-29T03:54:49;10.50;99.90
30134;DHT22;16946;49.984;10.672;2022-12-29T03:55:19;10.50;99.90
30134;DHT22;16946;49.984;10.672;2022-12-29T03:55:50;10.50;99.90
30134;DHT22;16946;49.984;10.672;2022-12-29T03:56:21;10.50;99.90
30134;DHT22;16946;49.984;10.672;2022-12-29T03:56:51;10.50;99.90
30134;DHT22;16946;49.984;10.672;2022-12-29T03:57:22;10.50;99.90
30134;DHT22;16946;49.984;10.672;2022-12-29T03:57:52;10.50;99.90
30134;DHT22;16946;49.984;10.672;2022-12-29T03:58:23;10.50;99.90
30134;DHT22;16946;49.984;10.672;2022-12-29T03:58:53;10.50;99.90
30134;DHT22;16946;49.984;10.672;2022-12-29T03:59:24;10.50;99.90
30134;DHT22;16946;49.984;10.672;2022-12-29T03:59:55;10.60;99.90
30134;DHT22;16946;49.984;10.672;2022-12-29T04:00:25;10.50;99.90
30134;DHT22;16946;49.984;10.672;2022-12-29T04:00:56;10.60;99.90
30134;DHT22;16946;49.984;10.672;2022-12-29T04:01:27;10.60;99.90
30134;DHT22;16946;49.984;10.672;2022-12-29T04:01:57;10.60;99.90
30134;DHT22;16946;49.984;10.672;2022-12-29T04:02:28;10.60;99.90
30134;DHT22;16946;49.984;10.672;2022-12-29T04:02:58;10.60;99.90
30134;DHT22;16946;49.984;10.672;2022-12-29T04:03:29;10.60;99.90
30134;DHT22;16946;49.984;10.672;2022-12-29T04:03:59;10.60;99.90
30134;DHT22;16946;49.984;10.672;2022-12-29T04:04:30;10.60;99.90
30134;DHT22;16946;49.984;10.672;2022-12-29T04:05:00;10.60;99.90
30134;DHT22;16946;49.984;10.672;2022-12-29T04:05:31;10.60;99.90
30134;DHT22;16946;49.984;10.672;2022-12-29T04:06:02;10.60;99.90
30134;DHT22;16946;49.984;10.672;2022-12-29T04:06:32;10.60;99.90
30134;DHT22;16946;49.984;10.672;2022-12-29T04:07:03;10.50;99.90
30134;DHT22;16946;49.984;10.672;2022-12-29T04:07:33;10.50;99.90
30134;DHT22;16946;49.984;10.672;2022-12-29T04:08:04;10.50;99.90
30134;DHT22;16946;49.984;10.672;2022-12-29T04:08:35;10.50;99.90
30134;DHT22;16946;49.984;10.672;2022-12-29T04:09:05;10.50;99.90
30134;DHT22;16946;49.984;10.672;2022-12-29T04:09:36;10.50;99.90
30134;DHT22;16946;49.984;10.672;2022-12-29T04:10:07;10.50;99.90
30134;DHT22;16946;49.984;10.672;2022-12-29T04:10:37;10.50;99.90
30134;DHT22;16946;49.984;10.672;2022-12-29T04:11:08;10.50;99.90
30134;DHT22;16946;49.984;10.672;2022-12-29T04:11:38;10.50;99.90
30134;DHT22;16946;49.984;10.672;2022-12-29T04:12:09;10.60;99.90